createdAt,value
2019-03-03T00:00:22.913Z,85.48
2019-03-03T00:01:23.093Z,85.75
2019-03-03T00:02:22.857Z,85.27
2019-03-03T00:03:22.844Z,85.03
2019-03-03T00:04:22.833Z,85.24
2019-03-03T00:05:22.853Z,85.13
2019-03-03T00:06:22.812Z,85.55
2019-03-03T00:07:22.874Z,85.34
2019-03-03T00:08:24.584Z,85.24
2019-03-03T00:09:22.783Z,85.44
2019-03-03T00:10:22.769Z,85.13
2019-03-03T00:11:22.775Z,85.44
2019-03-03T00:12:22.755Z,85.24
2019-03-03T00:13:22.845Z,85.34
2019-03-03T00:14:22.818Z,85.24
2019-03-03T00:15:22.714Z,85.40
2019-03-03T00:16:22.702Z,85.50
2019-03-03T00:17:22.721Z,85.30
2019-03-03T00:18:22.680Z,85.30
2019-03-03T00:19:22.670Z,85.92
2019-03-03T00:20:22.731Z,85.61
2019-03-03T00:21:22.648Z,85.40
2019-03-03T00:22:22.639Z,85.82
2019-03-03T00:23:22.628Z,85.61
2019-03-03T00:24:22.618Z,85.30
2019-03-03T00:25:22.613Z,85.30
2019-03-03T00:26:22.691Z,85.92
2019-03-03T00:27:22.677Z,86.13
2019-03-03T00:28:22.571Z,85.82
2019-03-03T00:29:22.558Z,86.02
2019-03-03T00:30:22.554Z,85.71
2019-03-03T00:31:22.535Z,86.23
2019-03-03T00:32:22.544Z,85.78
2019-03-03T00:33:22.574Z,86.23
2019-03-03T00:34:22.525Z,85.71
2019-03-03T00:35:22.497Z,85.82
2019-03-03T00:36:22.484Z,85.92
2019-03-03T00:37:22.469Z,86.13
2019-03-03T00:38:22.465Z,86.19
2019-03-03T00:39:22.542Z,86.19
2019-03-03T00:40:22.437Z,86.19
2019-03-03T00:41:22.426Z,86.19
2019-03-03T00:42:22.415Z,86.09
2019-03-03T00:43:22.413Z,86.09
2019-03-03T00:44:22.509Z,86.19
2019-03-03T00:45:22.385Z,85.68
2019-03-03T00:46:22.383Z,85.99
2019-03-03T00:47:22.560Z,85.78
2019-03-03T00:48:22.373Z,86.09
2019-03-03T00:49:22.493Z,86.19
2019-03-03T00:50:22.429Z,86.19
2019-03-03T00:51:22.318Z,85.68
2019-03-03T00:52:22.351Z,85.99
2019-03-03T00:53:22.302Z,85.74
2019-03-03T00:54:22.285Z,85.84
2019-03-03T00:55:22.307Z,86.19
2019-03-03T00:56:22.334Z,85.53
2019-03-03T00:57:22.260Z,86.05
2019-03-03T00:58:22.262Z,85.74
2019-03-03T00:59:22.231Z,85.63
2019-03-03T01:00:22.237Z,85.42
2019-03-03T01:01:22.208Z,85.84
2019-03-03T01:02:22.285Z,85.84
2019-03-03T01:03:22.197Z,85.74
2019-03-03T01:04:22.176Z,85.42
2019-03-03T01:05:22.169Z,86.25
2019-03-03T01:06:22.173Z,86.05
2019-03-03T01:07:22.141Z,85.74
2019-03-03T01:08:22.197Z,85.84
2019-03-03T01:09:22.123Z,85.63
2019-03-03T01:10:22.118Z,85.53
2019-03-03T01:11:22.115Z,85.60
2019-03-03T01:12:22.201Z,85.80
2019-03-03T01:13:22.114Z,86.05
2019-03-03T01:14:22.069Z,85.74
2019-03-03T01:15:22.165Z,85.91
2019-03-03T01:16:22.043Z,85.18
2019-03-03T01:17:22.150Z,85.49
2019-03-03T01:18:22.025Z,85.49
2019-03-03T01:19:22.011Z,85.18
2019-03-03T01:20:22.176Z,85.18
2019-03-03T01:21:21.989Z,85.60
2019-03-03T01:22:21.979Z,85.60
2019-03-03T01:23:21.991Z,84.97
2019-03-03T01:24:21.954Z,86.11
2019-03-03T01:25:21.945Z,86.63
2019-03-03T01:26:22.023Z,86.32
2019-03-03T01:27:21.928Z,86.42
2019-03-03T01:28:21.922Z,86.94
2019-03-03T01:29:21.901Z,87.35
2019-03-03T01:30:21.890Z,88.39
2019-03-03T01:31:22.001Z,88.28
2019-03-03T01:32:21.870Z,88.70
2019-03-03T01:33:21.857Z,88.70
2019-03-03T01:34:21.864Z,89.01
2019-03-03T01:35:21.875Z,89.22
2019-03-03T01:36:21.823Z,89.73
2019-03-03T01:37:21.887Z,89.62
2019-03-03T01:38:21.803Z,89.94
2019-03-03T01:39:21.807Z,90.35
2019-03-03T01:40:21.806Z,90.97
2019-03-03T01:41:21.778Z,91.28
2019-03-03T01:42:21.870Z,90.87
2019-03-03T01:43:21.812Z,91.49
2019-03-03T01:44:21.739Z,91.17
2019-03-03T01:45:21.727Z,91.49
2019-03-03T01:46:21.718Z,91.59
2019-03-03T01:47:21.716Z,91.80
2019-03-03T01:48:21.759Z,91.69
2019-03-03T01:49:21.736Z,92.00
2019-03-03T01:50:21.669Z,91.69
2019-03-03T01:51:21.657Z,91.90
2019-03-03T01:52:21.652Z,91.90
2019-03-03T01:53:21.640Z,92.00
2019-03-03T01:54:21.633Z,91.69
2019-03-03T01:55:21.687Z,91.49
2019-03-03T01:56:21.670Z,91.80
2019-03-03T01:57:21.612Z,92.00
2019-03-03T01:58:21.586Z,92.11
2019-03-03T01:59:21.584Z,92.11
2019-03-03T02:00:21.764Z,92.63
2019-03-03T02:01:21.591Z,92.32
2019-03-03T02:02:21.672Z,92.42
2019-03-03T02:03:21.580Z,92.32
2019-03-03T02:04:21.600Z,92.63
2019-03-03T02:05:21.606Z,92.63
2019-03-03T02:06:22.050Z,92.83
2019-03-03T02:07:22.453Z,92.42
2019-03-03T02:08:21.971Z,92.52
2019-03-03T02:09:21.628Z,93.04
2019-03-03T02:10:21.538Z,93.24
2019-03-03T02:11:21.440Z,93.24
2019-03-03T02:12:21.429Z,93.35
2019-03-03T02:13:21.422Z,93.24
2019-03-03T02:14:21.406Z,92.83
2019-03-03T02:15:21.527Z,93.45
2019-03-03T02:16:21.655Z,93.66
2019-03-03T02:17:21.373Z,93.45
2019-03-03T02:18:21.379Z,93.45
2019-03-03T02:19:21.370Z,93.20
2019-03-03T02:20:21.342Z,93.14
2019-03-03T02:21:21.337Z,93.04
2019-03-03T02:22:21.422Z,93.04
2019-03-03T02:23:21.341Z,93.14
2019-03-03T02:24:21.298Z,92.99
2019-03-03T02:25:21.317Z,93.10
2019-03-03T02:26:21.328Z,93.30
2019-03-03T02:27:21.341Z,93.10
2019-03-03T02:28:21.357Z,92.99
2019-03-03T02:29:21.331Z,92.99
2019-03-03T02:30:21.309Z,93.41
2019-03-03T02:31:21.366Z,93.30
2019-03-03T02:32:21.300Z,93.30
2019-03-03T02:33:21.518Z,92.99
2019-03-03T02:34:21.304Z,92.95
2019-03-03T02:35:21.314Z,93.51
2019-03-03T02:36:21.355Z,93.41
2019-03-03T02:37:21.324Z,93.16
2019-03-03T02:38:21.291Z,93.26
2019-03-03T02:39:21.332Z,93.30
2019-03-03T02:40:21.286Z,93.05
2019-03-03T02:41:21.277Z,93.05
2019-03-03T02:42:21.396Z,93.57
2019-03-03T02:43:21.274Z,93.05
2019-03-03T02:44:22.789Z,93.16
2019-03-03T02:45:21.296Z,92.95
2019-03-03T02:46:21.292Z,92.95
2019-03-03T02:47:21.273Z,93.47
2019-03-03T02:48:21.298Z,93.78
2019-03-03T02:49:21.372Z,94.19
2019-03-03T02:50:21.283Z,94.19
2019-03-03T02:51:21.004Z,95.02
2019-03-03T02:52:20.992Z,95.02
2019-03-03T02:53:21.306Z,95.02
2019-03-03T02:54:20.973Z,95.32
2019-03-03T02:55:20.971Z,94.92
2019-03-03T02:56:21.461Z,95.32
2019-03-03T02:57:20.934Z,96.56
2019-03-03T02:58:20.923Z,95.43
2019-03-03T02:59:21.272Z,95.74
2019-03-03T03:00:20.951Z,95.64
2019-03-03T03:01:20.899Z,95.95
2019-03-03T03:02:20.881Z,96.05
2019-03-03T03:03:20.908Z,96.56
2019-03-03T03:04:20.864Z,96.36
2019-03-03T03:05:21.156Z,96.47
2019-03-03T03:06:20.838Z,96.26
2019-03-03T03:07:21.442Z,96.47
2019-03-03T03:08:20.840Z,96.47
2019-03-03T03:09:20.814Z,96.56
2019-03-03T03:10:20.809Z,96.56
2019-03-03T03:11:20.860Z,96.47
2019-03-03T03:12:20.774Z,96.47
2019-03-03T03:14:32.085Z,96.52
2019-03-03T03:15:32.025Z,96.15
2019-03-03T03:16:32.031Z,96.77
2019-03-03T03:17:32.008Z,96.62
2019-03-03T03:18:31.996Z,96.31
2019-03-03T03:19:31.990Z,96.42
2019-03-03T03:20:32.074Z,96.47
2019-03-03T03:21:31.958Z,96.83
2019-03-03T03:22:31.953Z,96.98
2019-03-03T03:23:31.940Z,97.08
2019-03-03T03:24:31.943Z,97.14
2019-03-03T03:25:32.027Z,97.04
2019-03-03T03:26:31.909Z,97.14
2019-03-03T03:27:31.893Z,97.08
2019-03-03T03:28:31.887Z,96.83
2019-03-03T03:29:31.885Z,97.04
2019-03-03T03:30:31.871Z,97.34
2019-03-03T03:31:31.932Z,97.04
2019-03-03T03:32:31.850Z,97.04
2019-03-03T03:33:31.831Z,96.98
2019-03-03T03:34:31.819Z,97.19
2019-03-03T03:35:31.814Z,97.19
2019-03-03T03:36:31.797Z,97.19
2019-03-03T03:37:31.887Z,97.45
2019-03-03T03:38:31.791Z,97.14
2019-03-03T03:39:31.802Z,97.39
2019-03-03T03:40:31.754Z,97.04
2019-03-03T03:41:31.742Z,97.14
2019-03-03T03:42:31.845Z,97.14
2019-03-03T03:43:31.725Z,97.04
2019-03-03T03:44:31.710Z,96.94
2019-03-03T03:45:31.951Z,96.73
2019-03-03T03:46:31.689Z,96.58
2019-03-03T03:47:31.676Z,96.73
2019-03-03T03:48:31.758Z,96.52
2019-03-03T03:49:31.658Z,96.31
2019-03-03T03:50:31.645Z,96.58
2019-03-03T03:51:31.632Z,96.52
2019-03-03T03:52:31.624Z,96.69
2019-03-03T03:53:31.689Z,96.48
2019-03-03T03:54:31.633Z,96.21
2019-03-03T03:55:31.685Z,96.27
2019-03-03T03:56:31.582Z,96.31
2019-03-03T03:57:31.565Z,96.37
2019-03-03T03:58:31.556Z,96.31
2019-03-03T03:59:31.547Z,96.17
2019-03-03T04:00:31.605Z,96.31
2019-03-03T04:01:31.581Z,96.27
2019-03-03T04:02:31.535Z,96.42
2019-03-03T04:03:31.499Z,96.37
2019-03-03T04:04:31.493Z,96.42
2019-03-03T04:05:31.484Z,96.31
2019-03-03T04:06:31.538Z,96.42
2019-03-03T04:07:31.466Z,96.62
2019-03-03T04:08:31.444Z,96.52
2019-03-03T04:09:31.435Z,96.01
2019-03-03T04:10:31.538Z,96.73
2019-03-03T04:11:31.419Z,96.52
2019-03-03T04:12:31.495Z,96.42
2019-03-03T04:13:31.410Z,96.42
2019-03-03T04:15:07.306Z,96.52
2019-03-03T04:15:31.386Z,96.21
2019-03-03T04:16:31.360Z,96.58
2019-03-03T04:17:31.438Z,96.52
2019-03-03T04:18:31.342Z,96.48
2019-03-03T04:19:31.323Z,96.42
2019-03-03T04:20:31.318Z,96.48
2019-03-03T04:21:31.304Z,95.45
2019-03-03T04:22:31.293Z,95.86
2019-03-03T04:23:31.399Z,95.34
2019-03-03T04:24:31.270Z,94.62
2019-03-03T04:25:31.259Z,95.24
2019-03-03T04:26:31.253Z,95.20
2019-03-03T04:27:31.245Z,94.89
2019-03-03T04:28:31.245Z,94.68
2019-03-03T04:29:31.423Z,95.09
2019-03-03T04:30:31.204Z,95.09
2019-03-03T04:31:31.261Z,94.06
2019-03-03T04:32:31.182Z,94.37
2019-03-03T04:33:31.177Z,94.37
2019-03-03T04:34:31.159Z,94.78
2019-03-03T04:35:31.267Z,93.85
2019-03-03T04:36:31.142Z,93.34
2019-03-03T04:37:31.128Z,93.75
2019-03-03T04:38:31.145Z,93.44
2019-03-03T04:39:31.180Z,93.65
2019-03-03T04:40:31.097Z,93.65
2019-03-03T04:41:31.082Z,93.50
2019-03-03T04:42:31.072Z,93.50
2019-03-03T04:43:31.084Z,93.60
2019-03-03T04:44:31.050Z,93.54
2019-03-03T04:45:31.137Z,93.13
2019-03-03T04:46:31.244Z,93.03
2019-03-03T04:47:31.016Z,92.99
2019-03-03T04:48:31.012Z,92.88
2019-03-03T04:49:30.997Z,93.09
2019-03-03T04:50:31.059Z,92.99
2019-03-03T04:51:31.042Z,92.88
2019-03-03T04:52:31.034Z,93.40
2019-03-03T04:53:30.967Z,93.19
2019-03-03T04:54:30.943Z,92.78
2019-03-03T04:55:30.930Z,92.57
2019-03-03T04:56:30.926Z,92.47
2019-03-03T04:57:30.911Z,92.47
2019-03-03T04:58:30.980Z,92.37
2019-03-03T04:59:30.907Z,92.06
2019-03-03T05:00:30.913Z,92.06
2019-03-03T05:01:30.868Z,92.06
2019-03-03T05:02:30.859Z,92.06
2019-03-03T05:03:31.161Z,91.96
2019-03-03T05:04:30.865Z,92.16
2019-03-03T05:05:30.826Z,91.96
2019-03-03T05:06:30.812Z,92.16
2019-03-03T05:07:30.801Z,92.27
2019-03-03T05:08:30.805Z,92.16
2019-03-03T05:09:30.900Z,92.37
2019-03-03T05:10:30.782Z,92.27
2019-03-03T05:11:30.759Z,91.40
2019-03-03T05:12:30.769Z,91.30
2019-03-03T05:13:30.736Z,91.60
2019-03-03T05:14:30.875Z,91.71
2019-03-03T05:16:40.600Z,91.19
2019-03-03T05:17:40.501Z,91.40
2019-03-03T05:18:40.490Z,90.88
2019-03-03T05:19:40.477Z,90.78
2019-03-03T05:20:40.467Z,91.19
2019-03-03T05:21:40.577Z,90.73
2019-03-03T05:22:40.440Z,91.05
2019-03-03T05:23:40.452Z,91.05
2019-03-03T05:24:40.450Z,90.64
2019-03-03T05:25:40.419Z,90.12
2019-03-03T05:26:40.474Z,90.12
2019-03-03T05:27:40.475Z,90.43
2019-03-03T05:28:40.377Z,90.33
2019-03-03T05:29:40.365Z,90.01
2019-03-03T05:30:40.358Z,89.81
2019-03-03T05:31:40.345Z,90.22
2019-03-03T05:32:40.334Z,89.71
2019-03-03T05:33:40.434Z,89.91
2019-03-03T05:34:40.311Z,89.87
2019-03-03T05:35:40.308Z,89.77
2019-03-03T05:36:40.296Z,90.08
2019-03-03T05:37:40.293Z,89.87
2019-03-03T05:38:40.278Z,89.50
2019-03-03T05:39:40.343Z,89.56
2019-03-03T05:40:40.270Z,89.56
2019-03-03T05:41:40.251Z,89.05
2019-03-03T05:42:40.230Z,89.36
2019-03-03T05:43:40.215Z,89.29
2019-03-03T05:44:40.349Z,89.67
2019-03-03T05:45:40.214Z,89.56
2019-03-03T05:46:42.717Z,89.40
2019-03-03T05:47:40.206Z,89.97
2019-03-03T05:48:40.195Z,89.87
2019-03-03T05:49:40.189Z,89.67
2019-03-03T05:50:40.335Z,89.56
2019-03-03T05:51:40.340Z,89.56
2019-03-03T05:52:40.116Z,89.56
2019-03-03T05:53:40.107Z,89.46
2019-03-03T05:54:40.094Z,89.36
2019-03-03T05:55:40.085Z,89.36
2019-03-03T05:56:40.168Z,89.25
2019-03-03T05:57:40.063Z,89.25
2019-03-03T05:58:40.052Z,89.56
2019-03-03T05:59:40.054Z,89.67
2019-03-03T06:00:40.112Z,89.25
2019-03-03T06:01:40.122Z,89.36
2019-03-03T06:02:40.003Z,89.36
2019-03-03T06:03:39.997Z,89.25
2019-03-03T06:04:39.988Z,89.25
2019-03-03T06:05:39.974Z,89.36
2019-03-03T06:06:39.963Z,89.05
2019-03-03T06:07:40.633Z,89.36
2019-03-03T06:08:39.940Z,89.25
2019-03-03T06:09:39.935Z,88.59
2019-03-03T06:10:39.963Z,89.01
2019-03-03T06:11:39.990Z,88.80
2019-03-03T06:12:39.897Z,88.90
2019-03-03T06:13:39.914Z,88.59
2019-03-03T06:14:39.882Z,88.59
2019-03-03T06:15:39.883Z,88.80
2019-03-03T06:16:39.924Z,88.80
2019-03-03T06:17:39.845Z,88.39
2019-03-03T06:18:39.832Z,88.29
2019-03-03T06:19:39.928Z,88.18
2019-03-03T06:20:39.816Z,88.14
2019-03-03T06:21:39.809Z,88.35
2019-03-03T06:22:39.788Z,88.35
2019-03-03T06:23:39.803Z,88.04
2019-03-03T06:24:39.765Z,88.24
2019-03-03T06:25:39.829Z,88.14
2019-03-03T06:26:39.744Z,88.14
2019-03-03T06:27:39.796Z,87.84
2019-03-03T06:28:39.808Z,87.73
2019-03-03T06:29:39.917Z,88.14
2019-03-03T06:30:39.711Z,87.94
2019-03-03T06:31:39.815Z,88.35
2019-03-03T06:32:39.678Z,87.63
2019-03-03T06:33:39.671Z,88.24
2019-03-03T06:34:39.657Z,88.14
2019-03-03T06:35:39.647Z,88.35
2019-03-03T06:36:39.658Z,87.84
2019-03-03T06:37:39.706Z,87.49
2019-03-03T06:38:39.611Z,87.94
2019-03-03T06:39:39.605Z,87.94
2019-03-03T06:40:39.591Z,87.69
2019-03-03T06:41:39.660Z,87.84
2019-03-03T06:42:39.647Z,87.79
2019-03-03T06:43:39.760Z,87.90
2019-03-03T06:44:39.618Z,87.38
2019-03-03T06:45:39.535Z,87.59
2019-03-03T06:46:39.524Z,87.38
2019-03-03T06:47:39.515Z,87.28
2019-03-03T06:48:39.586Z,87.28
2019-03-03T06:49:39.501Z,87.04
2019-03-03T06:50:39.488Z,86.42
2019-03-03T06:51:39.499Z,86.42
2019-03-03T06:52:39.463Z,86.52
2019-03-03T06:53:39.519Z,86.72
2019-03-03T06:54:39.443Z,85.76
2019-03-03T06:55:39.428Z,85.76
2019-03-03T06:56:39.421Z,86.17
2019-03-03T06:57:39.408Z,86.07
2019-03-03T06:58:39.397Z,85.97
2019-03-03T06:59:39.454Z,85.46
2019-03-03T07:00:39.399Z,85.66
2019-03-03T07:01:39.492Z,85.66
2019-03-03T07:02:39.357Z,85.25
2019-03-03T07:03:39.343Z,84.94
2019-03-03T07:04:39.333Z,85.25
2019-03-03T07:05:39.324Z,84.94
2019-03-03T07:06:39.411Z,84.53
2019-03-03T07:07:39.298Z,84.94
2019-03-03T07:08:39.287Z,84.90
2019-03-03T07:09:39.275Z,84.18
2019-03-03T07:10:39.261Z,83.56
2019-03-03T07:11:39.255Z,84.08
2019-03-03T07:12:39.325Z,84.39
2019-03-03T07:13:39.232Z,83.36
2019-03-03T07:14:39.218Z,83.26
2019-03-03T07:15:39.208Z,83.26
2019-03-03T07:16:39.227Z,82.84
2019-03-03T07:17:39.196Z,83.15
2019-03-03T07:18:39.365Z,83.15
2019-03-03T07:19:39.172Z,83.15
2019-03-03T07:20:39.152Z,82.64
2019-03-03T07:21:39.149Z,82.81
2019-03-03T07:22:39.155Z,82.29
2019-03-03T07:23:39.122Z,82.19
2019-03-03T07:24:39.189Z,81.99
2019-03-03T07:25:39.096Z,81.68
2019-03-03T07:26:39.086Z,81.48
2019-03-03T07:27:39.075Z,81.37
2019-03-03T07:28:39.132Z,81.37
2019-03-03T07:29:39.052Z,81.06
2019-03-03T07:30:39.038Z,80.92
2019-03-03T07:31:39.029Z,80.92
2019-03-03T07:32:39.016Z,80.62
2019-03-03T07:33:39.044Z,80.62
2019-03-03T07:34:39.075Z,79.80
2019-03-03T07:35:38.994Z,80.00
2019-03-03T07:36:38.973Z,79.69
2019-03-03T07:37:38.962Z,79.49
2019-03-03T07:38:38.957Z,79.49
2019-03-03T07:39:38.955Z,79.08
2019-03-03T07:40:39.005Z,79.38
2019-03-03T07:41:43.302Z,78.97
2019-03-03T07:42:38.940Z,79.04
2019-03-03T07:43:38.894Z,78.12
2019-03-03T07:44:38.891Z,78.42
2019-03-03T07:45:38.870Z,78.22
2019-03-03T07:46:38.946Z,78.42
2019-03-03T07:48:02.739Z,77.29
2019-03-03T07:48:38.845Z,77.29
2019-03-03T07:49:38.829Z,77.40
2019-03-03T07:50:38.838Z,77.29
2019-03-03T07:51:38.811Z,76.99
2019-03-03T07:52:38.951Z,76.89
2019-03-03T07:53:38.790Z,76.95
2019-03-03T07:54:38.886Z,76.85
2019-03-03T07:55:38.766Z,76.54
2019-03-03T07:56:38.755Z,76.24
2019-03-03T07:57:38.745Z,76.14
2019-03-03T07:58:38.848Z,76.24
2019-03-03T07:59:38.720Z,76.54
2019-03-03T08:00:38.707Z,76.14
2019-03-03T08:01:38.702Z,76.03
2019-03-03T08:02:38.699Z,75.52
2019-03-03T08:03:38.673Z,75.11
2019-03-03T08:04:38.765Z,76.03
2019-03-03T08:05:38.652Z,74.60
2019-03-03T08:06:38.770Z,75.52
2019-03-03T08:07:38.632Z,75.18
2019-03-03T08:08:38.620Z,75.07
2019-03-03T08:09:38.624Z,74.77
2019-03-03T08:10:38.685Z,74.15
2019-03-03T08:11:38.616Z,75.07
2019-03-03T08:12:39.219Z,74.15
2019-03-03T08:13:38.579Z,74.46
2019-03-03T08:14:38.551Z,74.46
2019-03-03T08:15:38.540Z,73.85
2019-03-03T08:16:38.616Z,72.78
2019-03-03T08:17:38.526Z,72.99
2019-03-03T08:18:38.507Z,72.96
2019-03-03T08:19:38.670Z,72.69
2019-03-03T08:20:38.491Z,72.99
2019-03-03T08:21:38.571Z,72.48
2019-03-03T08:22:38.490Z,72.48
2019-03-03T08:23:38.455Z,72.48
2019-03-03T08:24:38.443Z,71.94
2019-03-03T08:25:38.430Z,71.49
2019-03-03T08:26:38.417Z,71.29
2019-03-03T08:27:38.518Z,71.29
2019-03-03T08:28:38.421Z,70.78
2019-03-03T08:29:38.387Z,71.29
2019-03-03T08:30:38.371Z,71.42
2019-03-03T08:31:38.363Z,71.53
2019-03-03T08:32:38.397Z,71.56
2019-03-03T08:33:38.422Z,72.17
2019-03-03T08:34:38.349Z,71.62
2019-03-03T08:35:38.330Z,71.73
2019-03-03T08:36:38.308Z,71.32
2019-03-03T08:37:38.306Z,71.19
2019-03-03T08:38:38.303Z,70.88
2019-03-03T08:39:38.454Z,70.57
2019-03-03T08:40:38.271Z,70.26
2019-03-03T08:41:38.268Z,69.82
2019-03-03T08:42:38.242Z,69.01
2019-03-03T08:43:38.230Z,69.93
2019-03-03T08:44:38.219Z,69.69
2019-03-03T08:45:38.377Z,69.62
2019-03-03T08:46:38.225Z,69.21
2019-03-03T08:47:38.211Z,70.13
2019-03-03T08:48:38.215Z,70.26
2019-03-03T08:49:38.191Z,70.16
2019-03-03T08:50:38.354Z,70.37
2019-03-03T08:51:38.229Z,70.26
2019-03-03T08:52:38.136Z,70.47
2019-03-03T08:53:38.143Z,70.88
2019-03-03T08:54:38.297Z,70.26
2019-03-03T08:55:38.209Z,70.47
2019-03-03T08:56:38.151Z,70.57
2019-03-03T08:57:38.101Z,70.06
2019-03-03T08:58:38.073Z,70.47
2019-03-03T08:59:38.054Z,70.16
2019-03-03T09:00:38.041Z,69.52
2019-03-03T09:01:38.221Z,69.52
2019-03-03T09:02:38.028Z,69.82
2019-03-03T09:03:38.032Z,69.42
2019-03-03T09:04:38.155Z,69.42
2019-03-03T09:05:38.057Z,69.75
2019-03-03T09:06:38.062Z,69.65
2019-03-03T09:07:38.072Z,70.16
2019-03-03T09:08:37.978Z,72.62
2019-03-03T09:09:37.941Z,72.92
2019-03-03T09:10:37.945Z,73.64
2019-03-03T09:11:37.927Z,73.74
2019-03-03T09:12:37.985Z,72.31
2019-03-03T09:13:38.033Z,72.52
2019-03-03T09:14:37.884Z,72.41
2019-03-03T09:15:37.876Z,72.48
2019-03-03T09:16:37.862Z,72.62
2019-03-03T09:17:37.853Z,72.41
2019-03-03T09:18:52.756Z,72.82
2019-03-03T09:19:37.921Z,72.92
2019-03-03T09:20:37.819Z,72.52
2019-03-03T09:21:37.808Z,72.62
2019-03-03T09:22:37.814Z,73.23
2019-03-03T09:23:37.795Z,72.52
2019-03-03T09:24:37.781Z,72.21
2019-03-03T09:25:37.931Z,72.52
2019-03-03T09:26:37.756Z,72.52
2019-03-03T09:27:37.748Z,72.65
2019-03-03T09:28:37.760Z,72.31
2019-03-03T09:29:37.719Z,72.31
2019-03-03T09:30:37.712Z,72.14
2019-03-03T09:31:37.760Z,72.00
2019-03-03T09:32:37.685Z,72.31
2019-03-03T09:33:39.389Z,71.70
2019-03-03T09:34:37.664Z,72.34
2019-03-03T09:35:37.752Z,71.59
2019-03-03T09:36:37.733Z,70.88
2019-03-03T09:37:37.648Z,70.88
2019-03-03T09:38:37.622Z,70.64
2019-03-03T09:39:37.608Z,70.64
2019-03-03T09:40:37.598Z,70.23
2019-03-03T09:41:37.666Z,70.03
2019-03-03T09:42:37.577Z,70.03
2019-03-03T09:43:37.574Z,69.62
2019-03-03T09:44:37.555Z,69.42
2019-03-03T09:45:37.593Z,70.10
2019-03-03T09:46:37.595Z,69.69
2019-03-03T09:47:37.655Z,69.59
2019-03-03T09:48:37.509Z,70.30
2019-03-03T09:49:37.500Z,69.38
2019-03-03T09:50:37.496Z,69.89
2019-03-03T09:51:37.475Z,69.18
2019-03-03T09:52:37.598Z,70.40
2019-03-03T09:53:37.451Z,69.35
2019-03-03T09:54:37.541Z,68.02
2019-03-03T09:55:37.435Z,68.63
2019-03-03T09:56:37.444Z,69.15
2019-03-03T09:57:37.415Z,68.84
2019-03-03T09:58:37.397Z,68.84
2019-03-03T09:59:37.387Z,68.94
2019-03-03T10:00:37.435Z,69.45
2019-03-03T10:01:37.367Z,69.65
2019-03-03T10:02:37.413Z,67.92
2019-03-03T10:03:37.399Z,69.15
2019-03-03T10:04:37.558Z,69.28
2019-03-03T10:05:37.411Z,69.24
2019-03-03T10:06:37.322Z,68.97
2019-03-03T10:07:37.298Z,69.48
2019-03-03T10:08:37.289Z,69.48
2019-03-03T10:09:37.292Z,69.59
2019-03-03T10:10:37.298Z,69.59
2019-03-03T10:11:37.373Z,69.79
2019-03-03T10:12:37.255Z,69.07
2019-03-03T10:13:37.246Z,69.48
2019-03-03T10:14:37.219Z,69.56
2019-03-03T10:15:37.210Z,69.65
2019-03-03T10:16:37.212Z,69.35
2019-03-03T10:17:37.249Z,70.17
2019-03-03T10:18:37.178Z,69.65
2019-03-03T10:19:37.166Z,69.35
2019-03-03T10:20:37.154Z,68.53
2019-03-03T10:21:37.232Z,68.63
2019-03-03T10:22:37.149Z,69.45
2019-03-03T10:23:37.205Z,69.35
2019-03-03T10:24:37.108Z,69.86
2019-03-03T10:25:37.098Z,69.56
2019-03-03T10:26:37.088Z,69.56
2019-03-03T10:27:37.079Z,69.56
2019-03-03T10:28:37.063Z,70.27
2019-03-03T10:29:37.161Z,70.27
2019-03-03T10:30:37.043Z,70.98
2019-03-03T10:31:37.029Z,71.39
2019-03-03T10:32:37.063Z,71.29
2019-03-03T10:33:37.011Z,72.00
2019-03-03T10:34:37.035Z,72.21
2019-03-03T10:35:37.071Z,71.94
2019-03-03T10:36:36.976Z,71.63
2019-03-03T10:37:36.962Z,71.22
2019-03-03T10:38:36.953Z,70.92
2019-03-03T10:39:36.960Z,71.29
2019-03-03T10:40:37.038Z,70.57
2019-03-03T10:41:36.942Z,70.17
2019-03-03T10:42:36.911Z,70.06
2019-03-03T10:43:36.902Z,70.98
2019-03-03T10:44:36.892Z,70.57
2019-03-03T10:45:37.066Z,70.10
2019-03-03T10:46:36.865Z,70.57
2019-03-03T10:47:36.856Z,70.27
2019-03-03T10:48:36.855Z,70.27
2019-03-03T10:49:36.829Z,70.78
2019-03-03T10:50:36.922Z,70.57
2019-03-03T10:51:36.848Z,70.44
2019-03-03T10:52:36.797Z,71.05
2019-03-03T10:53:36.791Z,71.87
2019-03-03T10:54:36.782Z,71.80
2019-03-03T10:55:36.778Z,72.41
2019-03-03T10:56:36.898Z,72.31
2019-03-03T10:57:36.749Z,72.72
2019-03-03T10:58:36.748Z,72.82
2019-03-03T10:59:36.733Z,73.03
2019-03-03T11:00:36.717Z,72.52
2019-03-03T11:01:36.705Z,72.69
2019-03-03T11:02:36.884Z,72.69
2019-03-03T11:03:36.683Z,72.79
2019-03-03T11:04:36.703Z,72.58
2019-03-03T11:05:36.664Z,72.28
2019-03-03T11:06:36.668Z,72.75
2019-03-03T11:07:36.755Z,72.55
2019-03-03T11:08:36.693Z,71.26
2019-03-03T11:09:36.634Z,71.43
2019-03-03T11:10:36.607Z,72.45
2019-03-03T11:11:36.601Z,71.53
2019-03-03T11:12:36.585Z,70.48
2019-03-03T11:13:36.678Z,70.57
2019-03-03T11:14:36.665Z,70.37
2019-03-03T11:15:36.562Z,70.10
2019-03-03T11:16:36.549Z,71.02
2019-03-03T11:17:36.540Z,70.51
2019-03-03T11:18:36.523Z,70.00
2019-03-03T11:19:37.426Z,70.51
2019-03-03T11:20:36.499Z,70.68
2019-03-03T11:21:36.524Z,70.31
2019-03-03T11:22:36.563Z,70.72
2019-03-03T11:23:36.480Z,70.40
2019-03-03T11:24:36.460Z,70.31
2019-03-03T11:25:36.735Z,69.69
2019-03-03T11:26:36.438Z,70.20
2019-03-03T11:27:36.423Z,70.51
2019-03-03T11:28:36.425Z,70.54
2019-03-03T11:29:36.407Z,70.85
2019-03-03T11:30:39.356Z,70.44
2019-03-03T11:31:36.483Z,70.61
2019-03-03T11:32:36.467Z,70.03
2019-03-03T11:33:36.352Z,70.14
2019-03-03T11:34:36.483Z,70.34
2019-03-03T11:35:36.331Z,70.23
2019-03-03T11:36:36.323Z,69.52
2019-03-03T11:37:36.441Z,69.59
2019-03-03T11:38:36.318Z,69.90
2019-03-03T11:39:36.289Z,69.08
2019-03-03T11:40:36.332Z,69.08
2019-03-03T11:41:36.275Z,68.88
2019-03-03T11:42:36.288Z,69.73
2019-03-03T11:43:36.414Z,69.49
2019-03-03T11:44:36.263Z,69.82
2019-03-03T11:45:36.235Z,70.03
2019-03-03T11:46:36.232Z,68.80
2019-03-03T11:47:36.238Z,69.82
2019-03-03T11:48:36.247Z,70.85
2019-03-03T11:49:36.356Z,70.81
2019-03-03T11:50:36.219Z,70.20
2019-03-03T11:51:36.722Z,70.61
2019-03-03T11:52:36.156Z,70.40
2019-03-03T11:53:36.151Z,70.61
2019-03-03T11:54:36.298Z,70.95
2019-03-03T11:55:36.131Z,70.64
2019-03-03T11:56:36.122Z,71.05
2019-03-03T11:57:36.164Z,71.05
2019-03-03T11:58:36.082Z,71.15
2019-03-03T11:59:36.077Z,71.36
2019-03-03T12:00:36.147Z,71.39
2019-03-03T12:01:36.323Z,71.70
2019-03-03T12:02:36.032Z,72.31
2019-03-03T12:03:36.039Z,72.52
2019-03-03T12:04:36.030Z,72.41
2019-03-03T12:05:36.016Z,72.52
2019-03-03T12:06:36.101Z,72.92
2019-03-03T12:07:35.979Z,72.72
2019-03-03T12:08:35.980Z,72.92
2019-03-03T12:09:35.974Z,73.44
2019-03-03T12:10:35.951Z,73.44
2019-03-03T12:11:36.064Z,73.03
2019-03-03T12:12:35.988Z,73.74
2019-03-03T12:13:35.924Z,74.25
2019-03-03T12:14:36.106Z,74.87
2019-03-03T12:15:35.896Z,75.07
2019-03-03T12:16:35.892Z,75.27
2019-03-03T12:17:35.872Z,76.19
2019-03-03T12:18:35.865Z,75.68
2019-03-03T12:19:35.923Z,76.29
2019-03-03T12:20:35.863Z,76.09
2019-03-03T12:21:35.829Z,77.97
2019-03-03T12:22:35.808Z,78.17
2019-03-03T12:23:35.843Z,79.80
2019-03-03T12:24:35.861Z,78.17
2019-03-03T12:25:36.186Z,78.58
2019-03-03T12:26:35.993Z,80.62
2019-03-03T12:27:35.986Z,78.07
2019-03-03T12:28:35.778Z,79.09
2019-03-03T12:29:35.801Z,78.64
2019-03-03T12:30:35.896Z,77.52
2019-03-03T12:31:35.730Z,77.22
2019-03-03T12:32:35.719Z,78.64
2019-03-03T12:33:35.711Z,78.58
2019-03-03T12:34:35.759Z,77.83
2019-03-03T12:35:35.738Z,78.34
2019-03-03T12:36:35.669Z,77.72
2019-03-03T12:37:35.654Z,76.60
2019-03-03T12:38:35.644Z,77.52
2019-03-03T12:39:35.635Z,77.42
2019-03-03T12:40:35.721Z,77.42
2019-03-03T12:41:35.603Z,77.01
2019-03-03T12:42:35.596Z,76.50
2019-03-03T12:43:35.610Z,76.60
2019-03-03T12:44:35.574Z,76.90
2019-03-03T12:45:35.728Z,76.09
2019-03-03T12:46:35.587Z,76.19
2019-03-03T12:47:35.537Z,76.16
2019-03-03T12:48:35.529Z,75.99
2019-03-03T12:49:35.527Z,76.06
2019-03-03T12:50:35.516Z,76.26
2019-03-03T12:51:35.576Z,75.85
2019-03-03T12:52:35.501Z,76.06
2019-03-03T12:53:35.565Z,75.95
2019-03-03T12:54:35.464Z,75.04